sensor_id;sensor_type;location;lat;lon;timestamp;pressure;altitude;pressure_sealevel;temperature;humidity
50302;BME280;36550;50.472;19.744;2022-10-26T00:02:42;98404.17;;;10.87;82.20
50302;BME280;36550;50.472;19.744;2022-10-26T00:05:27;98397.08;;;10.88;82.24
50302;BME280;36550;50.472;19.744;2022-10-26T00:08:11;98402.68;;;10.91;82.32
50302;BME280;36550;50.472;19.744;2022-10-26T00:10:57;98402.77;;;10.94;82.41
50302;BME280;36550;50.472;19.744;2022-10-26T00:13:43;98409.45;;;10.99;82.47
50302;BME280;36550;50.472;19.744;2022-10-26T00:16:28;98412.42;;;11.03;82.63
50302;BME280;36550;50.472;19.744;2022-10-26T00:19:12;98414.05;;;11.06;82.85
50302;BME280;36550;50.472;19.744;2022-10-26T00:21:56;98407.27;;;11.08;82.85
50302;BME280;36550;50.472;19.744;2022-10-26T00:24:40;98416.80;;;11.11;82.98
50302;BME280;36550;50.472;19.744;2022-10-26T00:27:25;98415.57;;;11.14;82.98
50302;BME280;36550;50.472;19.744;2022-10-26T00:30:09;98415.39;;;11.18;82.96
50302;BME280;36550;50.472;19.744;2022-10-26T00:32:53;98414.70;;;11.23;83.16
50302;BME280;36550;50.472;19.744;2022-10-26T00:35:38;98415.29;;;11.25;83.05
50302;BME280;36550;50.472;19.744;2022-10-26T00:38:22;98413.16;;;11.24;83.05
50302;BME280;36550;50.472;19.744;2022-10-26T00:41:06;98410.70;;;11.20;83.10
50302;BME280;36550;50.472;19.744;2022-10-26T00:43:52;98413.56;;;11.18;82.84
50302;BME280;36550;50.472;19.744;2022-10-26T00:46:37;98414.60;;;11.17;82.86
50302;BME280;36550;50.472;19.744;2022-10-26T00:49:21;98414.08;;;11.18;82.77
50302;BME280;36550;50.472;19.744;2022-10-26T00:52:07;98410.93;;;11.18;82.68
50302;BME280;36550;50.472;19.744;2022-10-26T00:54:51;98407.21;;;11.17;82.71
50302;BME280;36550;50.472;19.744;2022-10-26T00:57:37;98407.69;;;11.14;82.69
50302;BME280;36550;50.472;19.744;2022-10-26T01:00:22;98408.66;;;11.10;82.70
50302;BME280;36550;50.472;19.744;2022-10-26T01:03:09;98404.64;;;11.08;82.80
50302;BME280;36550;50.472;19.744;2022-10-26T01:05:56;98405.61;;;11.04;82.67
50302;BME280;36550;50.472;19.744;2022-10-26T01:08:42;98405.56;;;11.02;82.64
50302;BME280;36550;50.472;19.744;2022-10-26T01:11:26;98407.61;;;11.00;82.55
50302;BME280;36550;50.472;19.744;2022-10-26T01:14:13;98405.52;;;10.99;82.55
50302;BME280;36550;50.472;19.744;2022-10-26T01:17:20;98412.52;;;10.96;82.35
50302;BME280;36550;50.472;19.744;2022-10-26T01:20:44;98421.31;;;10.90;82.12
50302;BME280;36550;50.472;19.744;2022-10-26T01:27:00;98423.77;;;10.73;82.02
50302;BME280;36550;50.472;19.744;2022-10-26T01:30:13;98419.42;;;10.67;82.05
50302;BME280;36550;50.472;19.744;2022-10-26T01:33:22;98410.11;;;10.62;81.92
50302;BME280;36550;50.472;19.744;2022-10-26T01:39:30;98416.48;;;10.54;81.76
50302;BME280;36550;50.472;19.744;2022-10-26T01:42:20;98410.00;;;10.47;81.73
50302;BME280;36550;50.472;19.744;2022-10-26T01:45:08;98412.27;;;10.44;81.99
50302;BME280;36550;50.472;19.744;2022-10-26T01:47:53;98414.54;;;10.40;82.00
50302;BME280;36550;50.472;19.744;2022-10-26T01:50:42;98406.48;;;10.32;81.96
50302;BME280;36550;50.472;19.744;2022-10-26T01:53:29;98412.07;;;10.27;81.79
50302;BME280;36550;50.472;19.744;2022-10-26T01:56:19;98412.23;;;10.23;81.72
50302;BME280;36550;50.472;19.744;2022-10-26T01:59:16;98413.98;;;10.19;81.68
50302;BME280;36550;50.472;19.744;2022-10-26T02:08:55;98420.48;;;10.17;81.94
50302;BME280;36550;50.472;19.744;2022-10-26T02:11:42;98417.98;;;10.13;82.04
50302;BME280;36550;50.472;19.744;2022-10-26T02:14:46;98414.67;;;10.06;81.93
50302;BME280;36550;50.472;19.744;2022-10-26T02:17:50;98417.20;;;10.03;81.96
50302;BME280;36550;50.472;19.744;2022-10-26T02:20:40;98414.44;;;9.98;81.63
50302;BME280;36550;50.472;19.744;2022-10-26T02:23:27;98416.13;;;9.92;81.40
50302;BME280;36550;50.472;19.744;2022-10-26T02:26:15;98422.25;;;9.86;81.39
50302;BME280;36550;50.472;19.744;2022-10-26T02:29:03;98417.65;;;9.81;81.56
50302;BME280;36550;50.472;19.744;2022-10-26T02:31:50;98414.09;;;9.76;81.53
50302;BME280;36550;50.472;19.744;2022-10-26T02:34:37;98410.73;;;9.69;81.44
50302;BME280;36550;50.472;19.744;2022-10-26T02:37:23;98415.91;;;9.66;81.53
50302;BME280;36550;50.472;19.744;2022-10-26T02:40:11;98415.13;;;9.66;81.55
50302;BME280;36550;50.472;19.744;2022-10-26T02:42:59;98414.75;;;9.62;81.39
50302;BME280;36550;50.472;19.744;2022-10-26T02:45:56;98409.79;;;9.63;81.46
50302;BME280;36550;50.472;19.744;2022-10-26T02:48:40;98418.38;;;9.61;81.46
50302;BME280;36550;50.472;19.744;2022-10-26T02:51:30;98417.80;;;9.59;81.63
50302;BME280;36550;50.472;19.744;2022-10-26T02:57:42;98426.02;;;9.53;81.84
50302;BME280;36550;50.472;19.744;2022-10-26T03:00:29;98432.78;;;9.52;81.92
50302;BME280;36550;50.472;19.744;2022-10-26T03:03:15;98431.20;;;9.51;81.98
50302;BME280;36550;50.472;19.744;2022-10-26T03:05:59;98438.02;;;9.52;81.92
50302;BME280;36550;50.472;19.744;2022-10-26T03:08:43;98440.06;;;9.50;81.83
50302;BME280;36550;50.472;19.744;2022-10-26T03:11:28;98438.82;;;9.52;81.91
50302;BME280;36550;50.472;19.744;2022-10-26T03:14:12;98452.95;;;9.51;81.90
50302;BME280;36550;50.472;19.744;2022-10-26T03:16:56;98451.27;;;9.48;81.87
50302;BME280;36550;50.472;19.744;2022-10-26T03:19:41;98444.41;;;9.47;82.01
50302;BME280;36550;50.472;19.744;2022-10-26T03:22:25;98447.18;;;9.42;81.87
50302;BME280;36550;50.472;19.744;2022-10-26T03:25:09;98445.13;;;9.35;81.82
50302;BME280;36550;50.472;19.744;2022-10-26T03:28:01;98447.10;;;9.31;81.78
50302;BME280;36550;50.472;19.744;2022-10-26T03:30:47;98454.37;;;9.29;81.70
50302;BME280;36550;50.472;19.744;2022-10-26T03:33:31;98456.75;;;9.30;81.82
50302;BME280;36550;50.472;19.744;2022-10-26T03:36:15;98457.85;;;9.32;81.88
50302;BME280;36550;50.472;19.744;2022-10-26T03:38:59;98455.54;;;9.33;81.96
50302;BME280;36550;50.472;19.744;2022-10-26T03:41:44;98457.06;;;9.31;82.07
50302;BME280;36550;50.472;19.744;2022-10-26T03:44:30;98454.65;;;9.30;82.13
50302;BME280;36550;50.472;19.744;2022-10-26T03:47:14;98456.38;;;9.27;82.12
50302;BME280;36550;50.472;19.744;2022-10-26T03:49:59;98459.14;;;9.22;82.15
50302;BME280;36550;50.472;19.744;2022-10-26T03:52:43;98461.69;;;9.20;82.18
50302;BME280;36550;50.472;19.744;2022-10-26T03:55:29;98462.48;;;9.20;82.21
50302;BME280;36550;50.472;19.744;2022-10-26T03:58:14;98461.24;;;9.23;82.34
50302;BME280;36550;50.472;19.744;2022-10-26T04:00:58;98465.27;;;9.25;82.36
50302;BME280;36550;50.472;19.744;2022-10-26T04:03:42;98457.69;;;9.27;82.40
50302;BME280;36550;50.472;19.744;2022-10-26T04:06:27;98457.20;;;9.27;82.49
50302;BME280;36550;50.472;19.744;2022-10-26T04:09:11;98459.00;;;9.27;82.49
50302;BME280;36550;50.472;19.744;2022-10-26T04:11:57;98450.07;;;9.25;82.54
50302;BME280;36550;50.472;19.744;2022-10-26T04:14:41;98456.24;;;9.21;82.50
50302;BME280;36550;50.472;19.744;2022-10-26T04:17:26;98463.00;;;9.20;82.43
50302;BME280;36550;50.472;19.744;2022-10-26T04:20:10;98466.92;;;9.20;82.34
50302;BME280;36550;50.472;19.744;2022-10-26T04:22:57;98470.86;;;9.20;82.29
50302;BME280;36550;50.472;19.744;2022-10-26T04:25:42;98460.17;;;9.21;82.29
50302;BME280;36550;50.472;19.744;2022-10-26T04:28:27;98459.86;;;9.20;82.17
50302;BME280;36550;50.472;19.744;2022-10-26T04:31:11;98458.70;;;9.16;82.07
50302;BME280;36550;50.472;19.744;2022-10-26T04:33:55;98460.63;;;9.12;82.01
50302;BME280;36550;50.472;19.744;2022-10-26T04:36:40;98464.84;;;9.03;81.77
50302;BME280;36550;50.472;19.744;2022-10-26T04:39:24;98466.39;;;8.95;81.67
50302;BME280;36550;50.472;19.744;2022-10-26T04:42:08;98467.77;;;8.89;81.66
50302;BME280;36550;50.472;19.744;2022-10-26T04:44:53;98471.13;;;8.80;81.57
50302;BME280;36550;50.472;19.744;2022-10-26T04:47:37;98465.65;;;8.72;81.46
50302;BME280;36550;50.472;19.744;2022-10-26T04:50:22;98467.58;;;8.67;81.28
50302;BME280;36550;50.472;19.744;2022-10-26T04:53:07;98468.22;;;8.63;81.14
50302;BME280;36550;50.472;19.744;2022-10-26T04:55:58;98468.77;;;8.56;80.95
50302;BME280;36550;50.472;19.744;2022-10-26T04:58:43;98468.20;;;8.47;80.97
50302;BME280;36550;50.472;19.744;2022-10-26T05:01:27;98469.80;;;8.41;81.16
50302;BME280;36550;50.472;19.744;2022-10-26T05:04:11;98463.48;;;8.33;81.24
50302;BME280;36550;50.472;19.744;2022-10-26T05:06:56;98471.46;;;8.29;81.34
50302;BME280;36550;50.472;19.744;2022-10-26T05:09:40;98468.17;;;8.24;81.34
50302;BME280;36550;50.472;19.744;2022-10-26T05:12:24;98467.08;;;8.23;81.25
50302;BME280;36550;50.472;19.744;2022-10-26T05:15:09;98474.60;;;8.22;81.15
50302;BME280;36550;50.472;19.744;2022-10-26T05:18:02;98471.60;;;8.18;81.07
50302;BME280;36550;50.472;19.744;2022-10-26T05:20:51;98475.64;;;8.14;80.95
50302;BME280;36550;50.472;19.744;2022-10-26T05:23:35;98475.89;;;8.06;80.83
50302;BME280;36550;50.472;19.744;2022-10-26T05:26:21;98483.23;;;8.00;80.80
50302;BME280;36550;50.472;19.744;2022-10-26T05:29:06;98480.66;;;7.93;80.79
50302;BME280;36550;50.472;19.744;2022-10-26T05:31:50;98482.05;;;7.89;80.90
50302;BME280;36550;50.472;19.744;2022-10-26T05:34:35;98482.64;;;7.91;81.33
50302;BME280;36550;50.472;19.744;2022-10-26T05:37:19;98486.55;;;7.98;81.65
50302;BME280;36550;50.472;19.744;2022-10-26T05:40:04;98486.03;;;8.05;81.80
50302;BME280;36550;50.472;19.744;2022-10-26T05:42:49;98485.91;;;8.09;81.68
50302;BME280;36550;50.472;19.744;2022-10-26T05:45:33;98485.80;;;8.13;81.57
50302;BME280;36550;50.472;19.744;2022-10-26T05:48:18;98488.52;;;8.16;81.70
50302;BME280;36550;50.472;19.744;2022-10-26T05:51:03;98490.50;;;8.20;82.04
50302;BME280;36550;50.472;19.744;2022-10-26T05:53:50;98495.51;;;8.28;82.37
50302;BME280;36550;50.472;19.744;2022-10-26T05:56:38;98487.93;;;8.36;82.57
50302;BME280;36550;50.472;19.744;2022-10-26T05:59:23;98497.97;;;8.46;82.67
50302;BME280;36550;50.472;19.744;2022-10-26T06:05:21;98497.59;;;8.65;82.82
50302;BME280;36550;50.472;19.744;2022-10-26T06:08:09;98515.23;;;8.76;82.90
50302;BME280;36550;50.472;19.744;2022-10-26T06:10:55;98506.92;;;8.86;83.09
50302;BME280;36550;50.472;19.744;2022-10-26T06:13:42;98508.27;;;8.95;83.36
50302;BME280;36550;50.472;19.744;2022-10-26T06:26:25;98516.58;;;9.17;83.30
50302;BME280;36550;50.472;19.744;2022-10-26T06:32:44;98521.16;;;9.29;83.11
50302;BME280;36550;50.472;19.744;2022-10-26T06:38:28;98522.26;;;9.39;83.39
50302;BME280;36550;50.472;19.744;2022-10-26T06:41:16;98526.94;;;9.47;83.57
50302;BME280;36550;50.472;19.744;2022-10-26T06:44:03;98527.83;;;9.50;83.57
50302;BME280;36550;50.472;19.744;2022-10-26T06:47:16;98528.00;;;9.55;83.58
50302;BME280;36550;50.472;19.744;2022-10-26T06:50:25;98527.85;;;9.59;83.56
50302;BME280;36550;50.472;19.744;2022-10-26T06:53:19;98531.22;;;9.66;83.58
50302;BME280;36550;50.472;19.744;2022-10-26T06:56:10;98532.55;;;9.75;83.64
50302;BME280;36550;50.472;19.744;2022-10-26T06:58:55;98532.05;;;9.85;83.83
50302;BME280;36550;50.472;19.744;2022-10-26T07:01:43;98530.53;;;9.96;83.94
50302;BME280;36550;50.472;19.744;2022-10-26T07:04:27;98536.00;;;10.03;84.03
50302;BME280;36550;50.472;19.744;2022-10-26T07:07:15;98535.20;;;10.12;84.12
50302;BME280;36550;50.472;19.744;2022-10-26T07:10:07;98534.84;;;10.18;84.21
50302;BME280;36550;50.472;19.744;2022-10-26T07:12:52;98540.82;;;10.25;84.35
50302;BME280;36550;50.472;19.744;2022-10-26T07:15:37;98543.41;;;10.32;84.32
50302;BME280;36550;50.472;19.744;2022-10-26T07:18:22;98548.14;;;10.42;84.36
50302;BME280;36550;50.472;19.744;2022-10-26T07:21:06;98547.64;;;10.51;84.36
50302;BME280;36550;50.472;19.744;2022-10-26T07:23:51;98550.52;;;10.62;84.41
50302;BME280;36550;50.472;19.744;2022-10-26T07:26:35;98549.50;;;10.72;84.45
50302;BME280;36550;50.472;19.744;2022-10-26T07:29:19;98555.31;;;10.83;84.50
50302;BME280;36550;50.472;19.744;2022-10-26T07:32:04;98553.40;;;10.90;84.57
50302;BME280;36550;50.472;19.744;2022-10-26T07:34:49;98555.20;;;10.99;84.63
50302;BME280;36550;50.472;19.744;2022-10-26T07:37:33;98548.53;;;11.06;84.76
50302;BME280;36550;50.472;19.744;2022-10-26T07:40:17;98556.11;;;11.14;84.75
50302;BME280;36550;50.472;19.744;2022-10-26T07:43:02;98555.25;;;11.23;84.77
50302;BME280;36550;50.472;19.744;2022-10-26T07:45:49;98557.34;;;11.32;84.77
50302;BME280;36550;50.472;19.744;2022-10-26T07:48:34;98554.73;;;11.44;84.81
50302;BME280;36550;50.472;19.744;2022-10-26T07:51:18;98556.57;;;11.55;84.78
50302;BME280;36550;50.472;19.744;2022-10-26T07:54:03;98555.73;;;11.64;84.82
50302;BME280;36550;50.472;19.744;2022-10-26T07:56:50;98552.26;;;11.73;84.89
50302;BME280;36550;50.472;19.744;2022-10-26T07:59:34;98555.28;;;11.79;84.88
50302;BME280;36550;50.472;19.744;2022-10-26T08:02:19;98553.06;;;11.85;84.82
50302;BME280;36550;50.472;19.744;2022-10-26T08:05:03;98559.31;;;11.93;84.83
50302;BME280;36550;50.472;19.744;2022-10-26T08:07:48;98556.62;;;12.03;84.82
50302;BME280;36550;50.472;19.744;2022-10-26T08:10:33;98560.01;;;12.12;84.81
50302;BME280;36550;50.472;19.744;2022-10-26T08:13:17;98558.89;;;12.23;84.86
50302;BME280;36550;50.472;19.744;2022-10-26T08:16:03;98556.98;;;12.32;84.88
50302;BME280;36550;50.472;19.744;2022-10-26T08:18:49;98551.89;;;12.40;84.93
50302;BME280;36550;50.472;19.744;2022-10-26T08:21:34;98550.20;;;12.48;84.97
50302;BME280;36550;50.472;19.744;2022-10-26T08:24:18;98551.43;;;12.58;84.96
50302;BME280;36550;50.472;19.744;2022-10-26T08:27:02;98553.75;;;12.68;84.94
50302;BME280;36550;50.472;19.744;2022-10-26T08:29:47;98552.11;;;12.79;84.90
50302;BME280;36550;50.472;19.744;2022-10-26T08:32:31;98552.02;;;12.88;84.87
50302;BME280;36550;50.472;19.744;2022-10-26T08:35:15;98552.15;;;12.96;84.83
50302;BME280;36550;50.472;19.744;2022-10-26T08:37:59;98554.65;;;13.03;84.80
50302;BME280;36550;50.472;19.744;2022-10-26T08:40:44;98553.16;;;13.09;84.82
50302;BME280;36550;50.472;19.744;2022-10-26T08:43:37;98559.61;;;13.16;84.73
50302;BME280;36550;50.472;19.744;2022-10-26T08:46:36;98557.92;;;13.24;84.62
50302;BME280;36550;50.472;19.744;2022-10-26T08:49:26;98558.08;;;13.32;84.52
50302;BME280;36550;50.472;19.744;2022-10-26T08:52:16;98555.00;;;13.38;84.46
50302;BME280;36550;50.472;19.744;2022-10-26T08:55:03;98562.03;;;13.49;84.29
50302;BME280;36550;50.472;19.744;2022-10-26T08:57:51;98564.76;;;13.54;84.22
50302;BME280;36550;50.472;19.744;2022-10-26T09:00:36;98561.66;;;13.57;83.93
50302;BME280;36550;50.472;19.744;2022-10-26T09:03:23;98564.17;;;13.66;84.03
50302;BME280;36550;50.472;19.744;2022-10-26T09:06:18;98564.04;;;13.76;83.96
50302;BME280;36550;50.472;19.744;2022-10-26T09:09:26;98564.94;;;13.84;83.87
50302;BME280;36550;50.472;19.744;2022-10-26T09:15:24;98567.05;;;14.01;83.61
50302;BME280;36550;50.472;19.744;2022-10-26T09:18:34;98566.55;;;14.04;83.33
50302;BME280;36550;50.472;19.744;2022-10-26T09:24:32;98567.09;;;14.06;83.00
50302;BME280;36550;50.472;19.744;2022-10-26T09:27:28;98571.69;;;14.14;82.67
50302;BME280;36550;50.472;19.744;2022-10-26T09:30:18;98569.89;;;14.17;82.50
50302;BME280;36550;50.472;19.744;2022-10-26T09:33:15;98573.13;;;14.21;82.37
50302;BME280;36550;50.472;19.744;2022-10-26T09:36:04;98567.85;;;14.21;82.27
50302;BME280;36550;50.472;19.744;2022-10-26T09:42:30;98568.16;;;14.25;81.88
50302;BME280;36550;50.472;19.744;2022-10-26T09:45:29;98575.12;;;14.34;81.78
50302;BME280;36550;50.472;19.744;2022-10-26T09:48:26;98575.19;;;14.39;81.45
50302;BME280;36550;50.472;19.744;2022-10-26T09:51:17;98580.06;;;14.47;81.19
50302;BME280;36550;50.472;19.744;2022-10-26T09:54:01;98579.75;;;14.43;80.84
50302;BME280;36550;50.472;19.744;2022-10-26T09:56:51;98579.75;;;14.43;80.84
50302;BME280;36550;50.472;19.744;2022-10-26T09:59:39;98588.55;;;14.52;80.28
50302;BME280;36550;50.472;19.744;2022-10-26T10:02:36;98588.55;;;14.52;80.28
50302;BME280;36550;50.472;19.744;2022-10-26T10:08:24;98582.61;;;14.61;79.65
50302;BME280;36550;50.472;19.744;2022-10-26T10:11:09;98579.53;;;14.67;79.74
50302;BME280;36550;50.472;19.744;2022-10-26T10:13:59;98571.03;;;14.65;79.87
50302;BME280;36550;50.472;19.744;2022-10-26T10:16:55;98581.71;;;14.73;79.53
50302;BME280;36550;50.472;19.744;2022-10-26T10:19:46;98576.44;;;14.75;79.39
50302;BME280;36550;50.472;19.744;2022-10-26T10:22:31;98582.83;;;14.79;79.54
50302;BME280;36550;50.472;19.744;2022-10-26T10:25:21;98581.03;;;14.85;79.49
50302;BME280;36550;50.472;19.744;2022-10-26T10:28:21;98582.41;;;14.90;79.30
50302;BME280;36550;50.472;19.744;2022-10-26T10:31:21;98583.73;;;14.90;78.91
50302;BME280;36550;50.472;19.744;2022-10-26T10:34:15;98583.20;;;14.91;78.68
50302;BME280;36550;50.472;19.744;2022-10-26T10:37:00;98582.70;;;14.91;78.71
50302;BME280;36550;50.472;19.744;2022-10-26T10:39:45;98582.19;;;14.94;78.69
50302;BME280;36550;50.472;19.744;2022-10-26T10:42:34;98583.61;;;15.02;78.53
50302;BME280;36550;50.472;19.744;2022-10-26T10:45:22;98588.92;;;15.07;78.33
50302;BME280;36550;50.472;19.744;2022-10-26T10:48:14;98588.45;;;15.13;78.28
50302;BME280;36550;50.472;19.744;2022-10-26T10:51:02;98583.99;;;15.16;78.13
50302;BME280;36550;50.472;19.744;2022-10-26T10:53:52;98589.05;;;15.20;77.84
50302;BME280;36550;50.472;19.744;2022-10-26T10:56:41;98588.33;;;15.27;78.06
50302;BME280;36550;50.472;19.744;2022-10-26T11:09:11;98587.47;;;15.51;77.23
50302;BME280;36550;50.472;19.744;2022-10-26T11:12:05;98591.83;;;15.65;77.24
50302;BME280;36550;50.472;19.744;2022-10-26T11:15:02;98588.77;;;15.76;76.73
50302;BME280;36550;50.472;19.744;2022-10-26T11:18:01;98590.72;;;15.88;76.63
50302;BME280;36550;50.472;19.744;2022-10-26T11:20:57;98585.17;;;15.90;75.67
50302;BME280;36550;50.472;19.744;2022-10-26T11:24:03;98582.25;;;15.91;76.10
50302;BME280;36550;50.472;19.744;2022-10-26T11:29:51;98590.72;;;15.88;75.28
50302;BME280;36550;50.472;19.744;2022-10-26T11:33:08;98592.30;;;15.89;75.55
50302;BME280;36550;50.472;19.744;2022-10-26T11:36:09;98584.11;;;15.93;75.59
50302;BME280;36550;50.472;19.744;2022-10-26T11:39:24;98592.63;;;16.01;75.57
50302;BME280;36550;50.472;19.744;2022-10-26T11:45:32;98589.73;;;16.00;74.88
50302;BME280;36550;50.472;19.744;2022-10-26T11:48:30;98579.34;;;15.90;74.06
50302;BME280;36550;50.472;19.744;2022-10-26T11:51:20;98582.99;;;15.84;73.49
50302;BME280;36550;50.472;19.744;2022-10-26T11:54:19;98577.45;;;15.86;73.85
50302;BME280;36550;50.472;19.744;2022-10-26T11:57:06;98578.03;;;15.93;73.83
50302;BME280;36550;50.472;19.744;2022-10-26T11:59:53;98579.92;;;15.97;73.76
50302;BME280;36550;50.472;19.744;2022-10-26T12:02:52;98583.94;;;16.03;73.25
50302;BME280;36550;50.472;19.744;2022-10-26T12:05:47;98580.80;;;16.13;73.33
50302;BME280;36550;50.472;19.744;2022-10-26T12:08:39;98583.76;;;16.20;73.24
50302;BME280;36550;50.472;19.744;2022-10-26T12:14:27;98576.89;;;16.21;73.07
50302;BME280;36550;50.472;19.744;2022-10-26T12:23:36;98572.38;;;16.22;72.65
50302;BME280;36550;50.472;19.744;2022-10-26T12:29:39;98581.69;;;16.29;72.20
50302;BME280;36550;50.472;19.744;2022-10-26T12:32:47;98576.95;;;16.34;72.00
50302;BME280;36550;50.472;19.744;2022-10-26T12:41:23;98580.47;;;16.55;71.27
50302;BME280;36550;50.472;19.744;2022-10-26T12:44:37;98584.23;;;16.72;71.03
50302;BME280;36550;50.472;19.744;2022-10-26T12:50:23;98568.42;;;16.90;70.13
50302;BME280;36550;50.472;19.744;2022-10-26T12:53:12;98569.75;;;16.87;69.95
50302;BME280;36550;50.472;19.744;2022-10-26T12:56:04;98564.17;;;16.86;69.93
50302;BME280;36550;50.472;19.744;2022-10-26T12:59:08;98563.91;;;16.88;69.48
50302;BME280;36550;50.472;19.744;2022-10-26T13:08:23;98581.84;;;16.65;68.33
50302;BME280;36550;50.472;19.744;2022-10-26T13:14:23;98573.80;;;16.45;68.34
50302;BME280;36550;50.472;19.744;2022-10-26T13:17:26;98572.98;;;16.36;68.36
50302;BME280;36550;50.472;19.744;2022-10-26T13:20:13;98572.95;;;16.31;68.13
50302;BME280;36550;50.472;19.744;2022-10-26T13:23:00;98567.63;;;16.26;68.11
50302;BME280;36550;50.472;19.744;2022-10-26T13:26:00;98569.45;;;16.21;68.07
50302;BME280;36550;50.472;19.744;2022-10-26T13:28:55;98568.37;;;16.19;68.16
50302;BME280;36550;50.472;19.744;2022-10-26T13:31:51;98568.13;;;16.15;68.11
50302;BME280;36550;50.472;19.744;2022-10-26T13:34:32;98572.84;;;16.11;68.22
50302;BME280;36550;50.472;19.744;2022-10-26T13:37:23;98573.89;;;16.07;68.22
50302;BME280;36550;50.472;19.744;2022-10-26T13:40:09;98578.64;;;16.03;68.07
50302;BME280;36550;50.472;19.744;2022-10-26T13:42:56;98581.00;;;15.99;67.92
50302;BME280;36550;50.472;19.744;2022-10-26T13:45:55;98581.75;;;15.94;67.86
50302;BME280;36550;50.472;19.744;2022-10-26T13:48:44;98579.88;;;15.90;67.68
50302;BME280;36550;50.472;19.744;2022-10-26T13:51:34;98579.84;;;15.85;67.66
50302;BME280;36550;50.472;19.744;2022-10-26T13:54:37;98580.05;;;15.81;67.60
50302;BME280;36550;50.472;19.744;2022-10-26T14:03:56;98578.05;;;15.61;67.72
50302;BME280;36550;50.472;19.744;2022-10-26T14:06:42;98575.36;;;15.55;67.81
50302;BME280;36550;50.472;19.744;2022-10-26T14:09:30;98578.75;;;15.51;67.91
50302;BME280;36550;50.472;19.744;2022-10-26T14:12:14;98582.42;;;15.47;68.06
50302;BME280;36550;50.472;19.744;2022-10-26T14:15:05;98577.66;;;15.47;68.20
50302;BME280;36550;50.472;19.744;2022-10-26T14:17:52;98579.23;;;15.45;68.24
50302;BME280;36550;50.472;19.744;2022-10-26T14:20:38;98572.57;;;15.40;68.29
50302;BME280;36550;50.472;19.744;2022-10-26T14:23:33;98574.13;;;15.36;68.27
50302;BME280;36550;50.472;19.744;2022-10-26T14:26:28;98578.05;;;15.31;68.34
50302;BME280;36550;50.472;19.744;2022-10-26T14:29:25;98578.28;;;15.27;68.39
50302;BME280;36550;50.472;19.744;2022-10-26T14:32:19;98573.77;;;15.22;68.48
50302;BME280;36550;50.472;19.744;2022-10-26T14:35:11;98578.99;;;15.17;68.46
50302;BME280;36550;50.472;19.744;2022-10-26T14:38:18;98583.44;;;15.11;68.47
50302;BME280;36550;50.472;19.744;2022-10-26T14:41:03;98582.59;;;15.06;68.49
50302;BME280;36550;50.472;19.744;2022-10-26T14:43:48;98587.53;;;14.99;68.46
50302;BME280;36550;50.472;19.744;2022-10-26T14:46:33;98582.96;;;14.92;68.48
50302;BME280;36550;50.472;19.744;2022-10-26T14:49:19;98586.08;;;14.87;68.53
50302;BME280;36550;50.472;19.744;2022-10-26T14:52:06;98588.92;;;14.80;68.67
50302;BME280;36550;50.472;19.744;2022-10-26T14:55:12;98593.86;;;14.74;68.75
50302;BME280;36550;50.472;19.744;2022-10-26T14:58:19;98593.02;;;14.71;68.93
50302;BME280;36550;50.472;19.744;2022-10-26T15:01:24;98600.38;;;14.66;69.09
50302;BME280;36550;50.472;19.744;2022-10-26T15:07:33;98609.20;;;14.55;69.26
50302;BME280;36550;50.472;19.744;2022-10-26T15:10:49;98610.30;;;14.39;69.58
50302;BME280;36550;50.472;19.744;2022-10-26T15:14:31;98610.30;;;14.39;69.58
50302;BME280;36550;50.472;19.744;2022-10-26T15:18:00;98604.35;;;14.27;69.41
50302;BME280;36550;50.472;19.744;2022-10-26T15:20:52;98610.77;;;14.14;69.46
50302;BME280;36550;50.472;19.744;2022-10-26T15:23:37;98616.69;;;14.04;69.57
50302;BME280;36550;50.472;19.744;2022-10-26T15:26:22;98614.15;;;13.93;69.58
50302;BME280;36550;50.472;19.744;2022-10-26T15:30:12;98614.08;;;13.71;69.33
50302;BME280;36550;50.472;19.744;2022-10-26T15:36:25;98618.60;;;13.41;69.74
50302;BME280;36550;50.472;19.744;2022-10-26T15:39:10;98621.58;;;13.31;70.24
50302;BME280;36550;50.472;19.744;2022-10-26T15:41:54;98625.86;;;13.22;70.49
50302;BME280;36550;50.472;19.744;2022-10-26T15:44:38;98622.59;;;13.15;70.65
50302;BME280;36550;50.472;19.744;2022-10-26T15:47:27;98628.00;;;13.08;70.88
50302;BME280;36550;50.472;19.744;2022-10-26T15:50:23;98632.31;;;13.00;70.95
50302;BME280;36550;50.472;19.744;2022-10-26T15:53:18;98633.38;;;12.87;70.86
50302;BME280;36550;50.472;19.744;2022-10-26T15:56:15;98641.85;;;12.75;71.08
50302;BME280;36550;50.472;19.744;2022-10-26T15:59:01;98643.47;;;12.64;71.22
50302;BME280;36550;50.472;19.744;2022-10-26T16:01:46;98641.25;;;12.59;71.43
50302;BME280;36550;50.472;19.744;2022-10-26T16:04:32;98642.86;;;12.48;71.34
50302;BME280;36550;50.472;19.744;2022-10-26T16:07:16;98647.45;;;12.41;71.68
50302;BME280;36550;50.472;19.744;2022-10-26T16:10:00;98646.77;;;12.33;71.84
50302;BME280;36550;50.472;19.744;2022-10-26T16:12:49;98652.39;;;12.25;71.94
50302;BME280;36550;50.472;19.744;2022-10-26T16:15:35;98650.83;;;12.15;71.97
50302;BME280;36550;50.472;19.744;2022-10-26T16:18:20;98656.81;;;12.01;71.73
50302;BME280;36550;50.472;19.744;2022-10-26T16:21:04;98651.69;;;11.85;71.70
50302;BME280;36550;50.472;19.744;2022-10-26T16:23:53;98660.33;;;11.74;72.02
50302;BME280;36550;50.472;19.744;2022-10-26T16:26:37;98658.70;;;11.70;72.39
50302;BME280;36550;50.472;19.744;2022-10-26T16:29:22;98661.77;;;11.67;72.63
50302;BME280;36550;50.472;19.744;2022-10-26T16:32:06;98664.84;;;11.64;72.68
50302;BME280;36550;50.472;19.744;2022-10-26T16:34:51;98659.39;;;11.56;72.63
50302;BME280;36550;50.472;19.744;2022-10-26T16:37:35;98665.20;;;11.47;72.50
50302;BME280;36550;50.472;19.744;2022-10-26T16:40:20;98664.56;;;11.33;72.38